sensor_id;sensor_type;location;lat;lon;timestamp;temperature;humidity
5136;DHT22;2586;48.710;9.202;2023-03-01T00:01:59;-0.50;1.00
5136;DHT22;2586;48.710;9.202;2023-03-01T00:04:25;-0.50;1.00
5136;DHT22;2586;48.710;9.202;2023-03-01T00:06:51;-0.50;1.00
5136;DHT22;2586;48.710;9.202;2023-03-01T00:09:17;-0.50;1.00
5136;DHT22;2586;48.710;9.202;2023-03-01T00:11:43;-0.50;1.00
5136;DHT22;2586;48.710;9.202;2023-03-01T00:14:08;-0.60;1.00
5136;DHT22;2586;48.710;9.202;2023-03-01T00:16:37;-0.60;1.00
5136;DHT22;2586;48.710;9.202;2023-03-01T00:19:08;-0.60;1.00
5136;DHT22;2586;48.710;9.202;2023-03-01T00:21:34;-0.60;1.00
5136;DHT22;2586;48.710;9.202;2023-03-01T00:24:01;-0.60;1.00
5136;DHT22;2586;48.710;9.202;2023-03-01T00:26:27;-0.60;1.00
5136;DHT22;2586;48.710;9.202;2023-03-01T00:28:54;-0.70;1.00
5136;DHT22;2586;48.710;9.202;2023-03-01T00:31:24;-0.70;1.00
5136;DHT22;2586;48.710;9.202;2023-03-01T00:33:55;-0.70;1.00
5136;DHT22;2586;48.710;9.202;2023-03-01T00:36:26;-0.70;1.00
5136;DHT22;2586;48.710;9.202;2023-03-01T00:38:52;-0.80;1.00
5136;DHT22;2586;48.710;9.202;2023-03-01T00:41:19;-0.80;1.00
5136;DHT22;2586;48.710;9.202;2023-03-01T00:43:45;-0.80;1.00
5136;DHT22;2586;48.710;9.202;2023-03-01T00:46:17;-0.90;1.00
5136;DHT22;2586;48.710;9.202;2023-03-01T00:48:43;-0.90;1.00
5136;DHT22;2586;48.710;9.202;2023-03-01T00:51:28;-0.90;1.00
5136;DHT22;2586;48.710;9.202;2023-03-01T00:53:56;-1.00;1.00
5136;DHT22;2586;48.710;9.202;2023-03-01T00:56:22;-1.00;1.00
5136;DHT22;2586;48.710;9.202;2023-03-01T00:58:48;-1.10;1.00
5136;DHT22;2586;48.710;9.202;2023-03-01T01:01:17;-1.10;1.00
5136;DHT22;2586;48.710;9.202;2023-03-01T01:03:54;-1.10;1.00
5136;DHT22;2586;48.710;9.202;2023-03-01T01:08:49;-1.10;53.70
5136;DHT22;2586;48.710;9.202;2023-03-01T01:11:15;-1.10;1.00
5136;DHT22;2586;48.710;9.202;2023-03-01T01:13:41;-1.10;1.00
5136;DHT22;2586;48.710;9.202;2023-03-01T01:16:07;-1.10;1.00
5136;DHT22;2586;48.710;9.202;2023-03-01T01:18:33;-1.10;1.00
5136;DHT22;2586;48.710;9.202;2023-03-01T01:21:08;-1.10;8.00
5136;DHT22;2586;48.710;9.202;2023-03-01T01:23:34;-1.10;1.00
5136;DHT22;2586;48.710;9.202;2023-03-01T01:26:07;-1.10;1.00
5136;DHT22;2586;48.710;9.202;2023-03-01T01:28:33;-1.10;1.00
5136;DHT22;2586;48.710;9.202;2023-03-01T01:30:59;-1.00;5.80
5136;DHT22;2586;48.710;9.202;2023-03-01T01:33:24;-1.10;1.00
5136;DHT22;2586;48.710;9.202;2023-03-01T01:35:50;-1.10;1.00
5136;DHT22;2586;48.710;9.202;2023-03-01T01:38:15;-1.00;1.00
5136;DHT22;2586;48.710;9.202;2023-03-01T01:40:45;-1.10;1.00
5136;DHT22;2586;48.710;9.202;2023-03-01T01:43:31;-1.10;1.00
5136;DHT22;2586;48.710;9.202;2023-03-01T01:46:06;-1.10;1.00
5136;DHT22;2586;48.710;9.202;2023-03-01T01:48:43;-1.10;1.00
5136;DHT22;2586;48.710;9.202;2023-03-01T01:51:19;-1.10;1.00
5136;DHT22;2586;48.710;9.202;2023-03-01T01:53:49;-1.00;1.00
5136;DHT22;2586;48.710;9.202;2023-03-01T01:56:16;-1.00;1.00
5136;DHT22;2586;48.710;9.202;2023-03-01T01:58:43;-0.90;1.00
5136;DHT22;2586;48.710;9.202;2023-03-01T02:01:10;-0.80;1.00
5136;DHT22;2586;48.710;9.202;2023-03-01T02:03:38;-0.70;1.00
5136;DHT22;2586;48.710;9.202;2023-03-01T02:08:59;-0.60;1.00
5136;DHT22;2586;48.710;9.202;2023-03-01T02:11:25;-0.50;1.00
5136;DHT22;2586;48.710;9.202;2023-03-01T02:13:53;-0.50;1.00
5136;DHT22;2586;48.710;9.202;2023-03-01T02:16:19;-0.40;1.00
5136;DHT22;2586;48.710;9.202;2023-03-01T02:18:45;-0.40;1.00
5136;DHT22;2586;48.710;9.202;2023-03-01T02:23:49;-0.40;1.00
5136;DHT22;2586;48.710;9.202;2023-03-01T02:26:33;-0.40;1.00
5136;DHT22;2586;48.710;9.202;2023-03-01T02:29:02;-0.30;1.00
5136;DHT22;2586;48.710;9.202;2023-03-01T02:31:28;-0.30;1.00
5136;DHT22;2586;48.710;9.202;2023-03-01T02:34:16;-0.30;1.00
5136;DHT22;2586;48.710;9.202;2023-03-01T02:36:54;-0.30;1.00
5136;DHT22;2586;48.710;9.202;2023-03-01T02:39:28;-0.20;1.00
5136;DHT22;2586;48.710;9.202;2023-03-01T02:41:56;-0.20;1.00
5136;DHT22;2586;48.710;9.202;2023-03-01T02:44:23;-0.20;1.00
5136;DHT22;2586;48.710;9.202;2023-03-01T02:46:51;-0.20;1.00
5136;DHT22;2586;48.710;9.202;2023-03-01T02:49:30;-0.20;1.00
5136;DHT22;2586;48.710;9.202;2023-03-01T02:52:15;-0.30;1.00
5136;DHT22;2586;48.710;9.202;2023-03-01T02:54:59;-0.20;1.00
5136;DHT22;2586;48.710;9.202;2023-03-01T02:57:27;-0.20;1.00
5136;DHT22;2586;48.710;9.202;2023-03-01T02:59:54;-0.20;1.00
5136;DHT22;2586;48.710;9.202;2023-03-01T03:02:24;-0.20;1.00
5136;DHT22;2586;48.710;9.202;2023-03-01T03:05:09;-0.20;1.00
5136;DHT22;2586;48.710;9.202;2023-03-01T03:07:38;-0.20;1.00
5136;DHT22;2586;48.710;9.202;2023-03-01T03:10:05;-0.20;1.00
5136;DHT22;2586;48.710;9.202;2023-03-01T03:12:31;-0.20;1.00
5136;DHT22;2586;48.710;9.202;2023-03-01T03:14:57;-0.20;1.00
5136;DHT22;2586;48.710;9.202;2023-03-01T03:17:23;-0.20;1.00
5136;DHT22;2586;48.710;9.202;2023-03-01T03:19:48;-0.20;1.00
5136;DHT22;2586;48.710;9.202;2023-03-01T03:22:14;-0.20;1.00
5136;DHT22;2586;48.710;9.202;2023-03-01T03:24:40;-0.20;1.00
5136;DHT22;2586;48.710;9.202;2023-03-01T03:27:06;-0.20;1.00
5136;DHT22;2586;48.710;9.202;2023-03-01T03:29:32;-0.20;1.00
5136;DHT22;2586;48.710;9.202;2023-03-01T03:31:58;-0.20;1.00
5136;DHT22;2586;48.710;9.202;2023-03-01T03:34:24;-0.20;1.00
5136;DHT22;2586;48.710;9.202;2023-03-01T03:36:56;-0.20;1.00
5136;DHT22;2586;48.710;9.202;2023-03-01T03:39:25;-0.20;1.00
5136;DHT22;2586;48.710;9.202;2023-03-01T03:41:50;-0.20;1.00
5136;DHT22;2586;48.710;9.202;2023-03-01T03:44:16;-0.10;1.00
5136;DHT22;2586;48.710;9.202;2023-03-01T03:46:42;-0.20;1.00
5136;DHT22;2586;48.710;9.202;2023-03-01T03:49:07;-0.20;1.00
5136;DHT22;2586;48.710;9.202;2023-03-01T03:51:33;-0.20;1.00
5136;DHT22;2586;48.710;9.202;2023-03-01T03:53:58;-0.20;1.00
5136;DHT22;2586;48.710;9.202;2023-03-01T03:56:24;-0.20;1.00
5136;DHT22;2586;48.710;9.202;2023-03-01T03:58:51;-0.20;1.00
5136;DHT22;2586;48.710;9.202;2023-03-01T04:01:17;-0.10;1.00
5136;DHT22;2586;48.710;9.202;2023-03-01T04:03:43;-0.20;1.00
5136;DHT22;2586;48.710;9.202;2023-03-01T04:06:12;-0.20;1.00
5136;DHT22;2586;48.710;9.202;2023-03-01T04:08:38;-0.10;1.00
5136;DHT22;2586;48.710;9.202;2023-03-01T04:11:05;-0.10;1.00
5136;DHT22;2586;48.710;9.202;2023-03-01T04:13:49;-0.10;1.00
5136;DHT22;2586;48.710;9.202;2023-03-01T04:16:15;-0.10;1.00
5136;DHT22;2586;48.710;9.202;2023-03-01T04:18:41;-0.10;1.00
5136;DHT22;2586;48.710;9.202;2023-03-01T04:21:06;-0.20;1.00
5136;DHT22;2586;48.710;9.202;2023-03-01T04:23:32;-0.10;1.00
5136;DHT22;2586;48.710;9.202;2023-03-01T04:25:59;-0.10;1.00
5136;DHT22;2586;48.710;9.202;2023-03-01T04:28:27;-0.10;1.00
5136;DHT22;2586;48.710;9.202;2023-03-01T04:30:55;-0.10;1.00
5136;DHT22;2586;48.710;9.202;2023-03-01T04:33:21;-0.10;1.00
5136;DHT22;2586;48.710;9.202;2023-03-01T04:35:47;-0.10;1.00
5136;DHT22;2586;48.710;9.202;2023-03-01T04:38:15;-0.10;1.00
5136;DHT22;2586;48.710;9.202;2023-03-01T04:40:41;-0.10;1.00
5136;DHT22;2586;48.710;9.202;2023-03-01T04:43:09;-0.10;1.00
5136;DHT22;2586;48.710;9.202;2023-03-01T04:45:35;-0.20;1.00
5136;DHT22;2586;48.710;9.202;2023-03-01T04:48:01;-0.10;1.00
5136;DHT22;2586;48.710;9.202;2023-03-01T04:50:27;-0.10;1.00
5136;DHT22;2586;48.710;9.202;2023-03-01T04:52:53;-0.10;1.00
5136;DHT22;2586;48.710;9.202;2023-03-01T04:55:18;-0.10;1.00
5136;DHT22;2586;48.710;9.202;2023-03-01T04:57:45;-0.10;1.00
5136;DHT22;2586;48.710;9.202;2023-03-01T05:00:13;-0.10;1.00
5136;DHT22;2586;48.710;9.202;2023-03-01T05:02:58;-0.10;1.00
5136;DHT22;2586;48.710;9.202;2023-03-01T05:05:32;0.00;1.00
5136;DHT22;2586;48.710;9.202;2023-03-01T05:08:00;-0.10;1.00
5136;DHT22;2586;48.710;9.202;2023-03-01T05:10:28;0.00;1.00
5136;DHT22;2586;48.710;9.202;2023-03-01T05:12:57;0.10;1.00
5136;DHT22;2586;48.710;9.202;2023-03-01T05:15:24;0.00;1.00
5136;DHT22;2586;48.710;9.202;2023-03-01T05:17:54;0.00;1.00
5136;DHT22;2586;48.710;9.202;2023-03-01T05:20:20;0.00;1.00
5136;DHT22;2586;48.710;9.202;2023-03-01T05:22:54;0.00;1.00
5136;DHT22;2586;48.710;9.202;2023-03-01T05:25:20;0.00;1.00
5136;DHT22;2586;48.710;9.202;2023-03-01T05:27:47;0.10;1.00
5136;DHT22;2586;48.710;9.202;2023-03-01T05:30:12;0.10;1.00
5136;DHT22;2586;48.710;9.202;2023-03-01T05:32:42;0.10;1.00
5136;DHT22;2586;48.710;9.202;2023-03-01T05:35:13;0.00;1.00
5136;DHT22;2586;48.710;9.202;2023-03-01T05:37:40;0.10;1.00
5136;DHT22;2586;48.710;9.202;2023-03-01T05:40:08;0.10;1.00
5136;DHT22;2586;48.710;9.202;2023-03-01T05:42:44;0.10;1.00
5136;DHT22;2586;48.710;9.202;2023-03-01T05:45:10;0.10;1.00
5136;DHT22;2586;48.710;9.202;2023-03-01T05:47:38;0.10;1.00
5136;DHT22;2586;48.710;9.202;2023-03-01T05:50:04;0.10;1.00
5136;DHT22;2586;48.710;9.202;2023-03-01T05:52:29;0.10;1.00
5136;DHT22;2586;48.710;9.202;2023-03-01T05:54:55;0.10;1.00
5136;DHT22;2586;48.710;9.202;2023-03-01T05:57:20;0.10;1.00
5136;DHT22;2586;48.710;9.202;2023-03-01T05:59:46;0.10;1.00
5136;DHT22;2586;48.710;9.202;2023-03-01T06:02:11;0.10;1.00
5136;DHT22;2586;48.710;9.202;2023-03-01T06:04:37;0.10;1.00
5136;DHT22;2586;48.710;9.202;2023-03-01T06:07:02;0.10;1.00
5136;DHT22;2586;48.710;9.202;2023-03-01T06:09:28;0.10;1.00
5136;DHT22;2586;48.710;9.202;2023-03-01T06:11:54;0.10;1.00
5136;DHT22;2586;48.710;9.202;2023-03-01T06:14:19;0.10;1.00
5136;DHT22;2586;48.710;9.202;2023-03-01T06:16:46;0.20;1.00
5136;DHT22;2586;48.710;9.202;2023-03-01T06:19:11;0.20;1.00
5136;DHT22;2586;48.710;9.202;2023-03-01T06:21:37;0.20;1.00
5136;DHT22;2586;48.710;9.202;2023-03-01T06:24:02;0.20;1.00
5136;DHT22;2586;48.710;9.202;2023-03-01T06:26:28;0.20;1.00
5136;DHT22;2586;48.710;9.202;2023-03-01T06:28:53;0.20;1.00
5136;DHT22;2586;48.710;9.202;2023-03-01T06:31:19;0.20;1.00
5136;DHT22;2586;48.710;9.202;2023-03-01T06:33:45;0.20;1.00
5136;DHT22;2586;48.710;9.202;2023-03-01T06:36:10;0.20;1.00
5136;DHT22;2586;48.710;9.202;2023-03-01T06:38:36;0.20;1.00
5136;DHT22;2586;48.710;9.202;2023-03-01T06:41:01;0.30;1.00
5136;DHT22;2586;48.710;9.202;2023-03-01T06:43:27;0.40;1.00
5136;DHT22;2586;48.710;9.202;2023-03-01T06:45:52;0.40;1.00
5136;DHT22;2586;48.710;9.202;2023-03-01T06:48:18;0.50;1.00
5136;DHT22;2586;48.710;9.202;2023-03-01T06:50:44;0.40;99.90
5136;DHT22;2586;48.710;9.202;2023-03-01T06:53:09;0.40;99.90
5136;DHT22;2586;48.710;9.202;2023-03-01T06:55:35;0.50;99.90
5136;DHT22;2586;48.710;9.202;2023-03-01T06:58:01;0.40;99.90
5136;DHT22;2586;48.710;9.202;2023-03-01T07:00:28;0.30;99.90
5136;DHT22;2586;48.710;9.202;2023-03-01T07:02:54;0.30;99.90
5136;DHT22;2586;48.710;9.202;2023-03-01T07:05:19;0.30;99.90
5136;DHT22;2586;48.710;9.202;2023-03-01T07:07:45;0.30;1.00
5136;DHT22;2586;48.710;9.202;2023-03-01T07:10:11;0.60;99.90
5136;DHT22;2586;48.710;9.202;2023-03-01T07:12:37;0.90;99.90
5136;DHT22;2586;48.710;9.202;2023-03-01T07:15:03;1.10;1.00
5136;DHT22;2586;48.710;9.202;2023-03-01T07:17:29;0.90;99.90
5136;DHT22;2586;48.710;9.202;2023-03-01T07:19:54;0.80;99.90
5136;DHT22;2586;48.710;9.202;2023-03-01T07:22:20;0.80;99.90
5136;DHT22;2586;48.710;9.202;2023-03-01T07:24:45;0.80;99.90
5136;DHT22;2586;48.710;9.202;2023-03-01T07:27:11;0.90;99.90
5136;DHT22;2586;48.710;9.202;2023-03-01T07:29:36;1.10;99.90
5136;DHT22;2586;48.710;9.202;2023-03-01T07:32:03;1.20;99.90
5136;DHT22;2586;48.710;9.202;2023-03-01T07:34:29;1.20;99.90
5136;DHT22;2586;48.710;9.202;2023-03-01T07:36:54;1.40;99.90
5136;DHT22;2586;48.710;9.202;2023-03-01T07:39:20;1.60;99.90
5136;DHT22;2586;48.710;9.202;2023-03-01T07:41:48;1.60;99.90
5136;DHT22;2586;48.710;9.202;2023-03-01T07:44:14;1.80;99.90
5136;DHT22;2586;48.710;9.202;2023-03-01T07:46:40;1.90;99.90
5136;DHT22;2586;48.710;9.202;2023-03-01T07:49:06;2.10;99.90
5136;DHT22;2586;48.710;9.202;2023-03-01T07:51:31;2.20;99.90
5136;DHT22;2586;48.710;9.202;2023-03-01T07:53:57;2.40;99.90
5136;DHT22;2586;48.710;9.202;2023-03-01T07:56:22;2.50;99.90
5136;DHT22;2586;48.710;9.202;2023-03-01T07:58:48;2.40;99.90
5136;DHT22;2586;48.710;9.202;2023-03-01T08:01:16;2.50;99.90
5136;DHT22;2586;48.710;9.202;2023-03-01T08:03:41;2.60;99.90
5136;DHT22;2586;48.710;9.202;2023-03-01T08:06:10;2.50;99.90
5136;DHT22;2586;48.710;9.202;2023-03-01T08:08:36;2.80;99.90
5136;DHT22;2586;48.710;9.202;2023-03-01T08:11:02;3.10;99.90
5136;DHT22;2586;48.710;9.202;2023-03-01T08:13:29;3.10;99.90
5136;DHT22;2586;48.710;9.202;2023-03-01T08:16:01;3.10;99.90
5136;DHT22;2586;48.710;9.202;2023-03-01T08:18:27;3.20;99.90
5136;DHT22;2586;48.710;9.202;2023-03-01T08:20:53;3.40;99.90
5136;DHT22;2586;48.710;9.202;2023-03-01T08:23:18;3.20;99.90
5136;DHT22;2586;48.710;9.202;2023-03-01T08:25:44;3.50;99.90
5136;DHT22;2586;48.710;9.202;2023-03-01T08:28:09;3.80;99.90
5136;DHT22;2586;48.710;9.202;2023-03-01T08:30:35;3.90;99.90
5136;DHT22;2586;48.710;9.202;2023-03-01T08:33:00;3.90;99.90
5136;DHT22;2586;48.710;9.202;2023-03-01T08:35:26;4.10;99.90
5136;DHT22;2586;48.710;9.202;2023-03-01T08:37:51;4.30;99.90
5136;DHT22;2586;48.710;9.202;2023-03-01T08:40:17;4.60;96.30
5136;DHT22;2586;48.710;9.202;2023-03-01T08:42:43;4.40;93.00
5136;DHT22;2586;48.710;9.202;2023-03-01T08:45:09;4.50;91.70
5136;DHT22;2586;48.710;9.202;2023-03-01T08:47:35;4.60;87.80
5136;DHT22;2586;48.710;9.202;2023-03-01T08:50:01;4.80;82.80
5136;DHT22;2586;48.710;9.202;2023-03-01T08:52:27;4.60;81.50
5136;DHT22;2586;48.710;9.202;2023-03-01T08:54:53;4.90;79.40
5136;DHT22;2586;48.710;9.202;2023-03-01T08:57:18;5.00;76.90
5136;DHT22;2586;48.710;9.202;2023-03-01T08:59:44;5.10;73.80
5136;DHT22;2586;48.710;9.202;2023-03-01T09:02:15;5.10;66.70
5136;DHT22;2586;48.710;9.202;2023-03-01T09:04:41;4.90;67.40
5136;DHT22;2586;48.710;9.202;2023-03-01T09:07:07;4.70;65.60
5136;DHT22;2586;48.710;9.202;2023-03-01T09:09:33;5.40;67.90
5136;DHT22;2586;48.710;9.202;2023-03-01T09:11:59;5.30;55.70
5136;DHT22;2586;48.710;9.202;2023-03-01T09:14:25;5.00;58.50
5136;DHT22;2586;48.710;9.202;2023-03-01T09:16:50;5.40;59.10
5136;DHT22;2586;48.710;9.202;2023-03-01T09:19:16;5.70;73.50
5136;DHT22;2586;48.710;9.202;2023-03-01T09:21:42;6.00;48.90
5136;DHT22;2586;48.710;9.202;2023-03-01T09:24:21;6.40;50.90
5136;DHT22;2586;48.710;9.202;2023-03-01T09:26:47;6.70;39.80
5136;DHT22;2586;48.710;9.202;2023-03-01T09:29:14;7.00;29.50
5136;DHT22;2586;48.710;9.202;2023-03-01T09:31:39;7.30;29.10
5136;DHT22;2586;48.710;9.202;2023-03-01T09:34:05;7.40;24.20
5136;DHT22;2586;48.710;9.202;2023-03-01T09:36:31;7.70;23.70
5136;DHT22;2586;48.710;9.202;2023-03-01T09:39:00;7.80;15.50
5136;DHT22;2586;48.710;9.202;2023-03-01T09:41:44;7.80;15.80
5136;DHT22;2586;48.710;9.202;2023-03-01T09:44:24;7.80;24.80
5136;DHT22;2586;48.710;9.202;2023-03-01T09:46:52;7.80;11.30
5136;DHT22;2586;48.710;9.202;2023-03-01T09:49:24;7.60;8.10
5136;DHT22;2586;48.710;9.202;2023-03-01T09:52:06;7.60;9.70
5136;DHT22;2586;48.710;9.202;2023-03-01T09:54:37;7.40;9.70
5136;DHT22;2586;48.710;9.202;2023-03-01T09:57:18;7.60;6.40
5136;DHT22;2586;48.710;9.202;2023-03-01T10:02:30;8.10;6.80
5136;DHT22;2586;48.710;9.202;2023-03-01T10:05:27;8.20;1.00
5136;DHT22;2586;48.710;9.202;2023-03-01T10:10:35;8.70;1.00
5136;DHT22;2586;48.710;9.202;2023-03-01T10:16:17;9.20;1.00
5136;DHT22;2586;48.710;9.202;2023-03-01T10:18:47;8.60;1.00
5136;DHT22;2586;48.710;9.202;2023-03-01T10:21:20;8.60;1.00
5136;DHT22;2586;48.710;9.202;2023-03-01T10:23:46;8.70;1.00
5136;DHT22;2586;48.710;9.202;2023-03-01T10:26:37;8.90;1.00
5136;DHT22;2586;48.710;9.202;2023-03-01T10:29:07;9.50;1.00
5136;DHT22;2586;48.710;9.202;2023-03-01T10:34:13;9.80;1.00
5136;DHT22;2586;48.710;9.202;2023-03-01T10:36:40;10.20;1.00
5136;DHT22;2586;48.710;9.202;2023-03-01T10:39:13;10.20;1.00
5136;DHT22;2586;48.710;9.202;2023-03-01T10:44:46;10.20;1.00
5136;DHT22;2586;48.710;9.202;2023-03-01T10:50:02;10.40;1.00
5136;DHT22;2586;48.710;9.202;2023-03-01T10:57:37;11.00;1.00
5136;DHT22;2586;48.710;9.202;2023-03-01T11:00:17;11.20;1.00
5136;DHT22;2586;48.710;9.202;2023-03-01T11:02:48;11.30;1.00
5136;DHT22;2586;48.710;9.202;2023-03-01T11:10:30;11.70;1.00
5136;DHT22;2586;48.710;9.202;2023-03-01T11:13:08;11.90;1.00
5136;DHT22;2586;48.710;9.202;2023-03-01T11:15:34;11.50;1.00
5136;DHT22;2586;48.710;9.202;2023-03-01T11:18:00;10.50;1.00
5136;DHT22;2586;48.710;9.202;2023-03-01T11:20:32;11.10;1.00
5136;DHT22;2586;48.710;9.202;2023-03-01T11:23:03;11.50;1.00
5136;DHT22;2586;48.710;9.202;2023-03-01T11:25:42;12.00;1.00
5136;DHT22;2586;48.710;9.202;2023-03-01T11:28:12;12.60;1.00
5136;DHT22;2586;48.710;9.202;2023-03-01T11:30:44;12.40;1.00
5136;DHT22;2586;48.710;9.202;2023-03-01T11:38:40;13.00;1.00
5136;DHT22;2586;48.710;9.202;2023-03-01T11:41:17;13.30;1.00
5136;DHT22;2586;48.710;9.202;2023-03-01T11:54:04;12.80;1.00
5136;DHT22;2586;48.710;9.202;2023-03-01T11:56:35;12.90;1.00
5136;DHT22;2586;48.710;9.202;2023-03-01T11:59:15;13.00;1.00
5136;DHT22;2586;48.710;9.202;2023-03-01T12:13:10;14.60;1.00
5136;DHT22;2586;48.710;9.202;2023-03-01T12:16:01;14.60;1.00
5136;DHT22;2586;48.710;9.202;2023-03-01T12:21:26;14.10;1.00
5136;DHT22;2586;48.710;9.202;2023-03-01T12:24:26;14.30;1.00
5136;DHT22;2586;48.710;9.202;2023-03-01T12:35:54;14.80;1.00
5136;DHT22;2586;48.710;9.202;2023-03-01T12:38:37;15.50;1.00
5136;DHT22;2586;48.710;9.202;2023-03-01T12:49:25;15.30;1.00
5136;DHT22;2586;48.710;9.202;2023-03-01T12:51:58;15.20;1.00
5136;DHT22;2586;48.710;9.202;2023-03-01T12:54:31;15.50;1.00
5136;DHT22;2586;48.710;9.202;2023-03-01T12:57:16;15.50;1.00
5136;DHT22;2586;48.710;9.202;2023-03-01T13:05:26;15.20;1.00
5136;DHT22;2586;48.710;9.202;2023-03-01T13:08:19;15.10;1.00
5136;DHT22;2586;48.710;9.202;2023-03-01T13:10:51;15.00;1.00
5136;DHT22;2586;48.710;9.202;2023-03-01T13:13:24;15.50;1.00
5136;DHT22;2586;48.710;9.202;2023-03-01T13:15:51;15.70;1.00
5136;DHT22;2586;48.710;9.202;2023-03-01T13:20:46;15.30;1.00
5136;DHT22;2586;48.710;9.202;2023-03-01T13:26:06;15.50;1.00
5136;DHT22;2586;48.710;9.202;2023-03-01T13:28:38;15.90;1.00
5136;DHT22;2586;48.710;9.202;2023-03-01T13:31:05;16.10;1.00
5136;DHT22;2586;48.710;9.202;2023-03-01T13:35:58;15.70;1.00
5136;DHT22;2586;48.710;9.202;2023-03-01T13:46:55;16.00;1.00
5136;DHT22;2586;48.710;9.202;2023-03-01T13:49:25;16.20;1.00
5136;DHT22;2586;48.710;9.202;2023-03-01T13:51:52;15.60;1.00
5136;DHT22;2586;48.710;9.202;2023-03-01T13:54:26;16.00;1.00
5136;DHT22;2586;48.710;9.202;2023-03-01T13:56:54;16.10;1.00
5136;DHT22;2586;48.710;9.202;2023-03-01T13:59:21;16.20;1.00
5136;DHT22;2586;48.710;9.202;2023-03-01T14:01:56;15.50;1.00
5136;DHT22;2586;48.710;9.202;2023-03-01T14:06:51;15.70;1.00
5136;DHT22;2586;48.710;9.202;2023-03-01T14:09:18;16.10;1.00
5136;DHT22;2586;48.710;9.202;2023-03-01T14:14:40;16.00;1.00
5136;DHT22;2586;48.710;9.202;2023-03-01T14:19:53;15.90;1.00
5136;DHT22;2586;48.710;9.202;2023-03-01T14:22:27;16.40;1.00
5136;DHT22;2586;48.710;9.202;2023-03-01T14:24:59;15.90;1.00
5136;DHT22;2586;48.710;9.202;2023-03-01T14:27:32;15.70;1.00
5136;DHT22;2586;48.710;9.202;2023-03-01T14:30:10;15.50;1.00
5136;DHT22;2586;48.710;9.202;2023-03-01T14:32:38;15.60;1.00
5136;DHT22;2586;48.710;9.202;2023-03-01T14:35:27;14.80;1.00
5136;DHT22;2586;48.710;9.202;2023-03-01T14:37:53;14.80;1.00
5136;DHT22;2586;48.710;9.202;2023-03-01T14:42:49;15.50;1.00
5136;DHT22;2586;48.710;9.202;2023-03-01T14:45:16;15.60;1.00
5136;DHT22;2586;48.710;9.202;2023-03-01T14:47:44;15.50;1.00
5136;DHT22;2586;48.710;9.202;2023-03-01T14:50:34;15.50;1.00
5136;DHT22;2586;48.710;9.202;2023-03-01T14:53:05;15.50;1.00
5136;DHT22;2586;48.710;9.202;2023-03-01T14:55:41;15.50;1.00
5136;DHT22;2586;48.710;9.202;2023-03-01T14:58:13;15.60;1.00
5136;DHT22;2586;48.710;9.202;2023-03-01T15:00:51;15.70;1.00
5136;DHT22;2586;48.710;9.202;2023-03-01T15:03:36;15.90;1.00
5136;DHT22;2586;48.710;9.202;2023-03-01T15:06:06;16.20;1.00
5136;DHT22;2586;48.710;9.202;2023-03-01T15:08:32;15.80;1.00
5136;DHT22;2586;48.710;9.202;2023-03-01T15:13:45;16.20;1.00
5136;DHT22;2586;48.710;9.202;2023-03-01T15:19:16;16.00;1.00
5136;DHT22;2586;48.710;9.202;2023-03-01T15:21:45;15.90;1.00
5136;DHT22;2586;48.710;9.202;2023-03-01T15:26:49;15.40;1.00
5136;DHT22;2586;48.710;9.202;2023-03-01T15:29:20;15.40;1.00
5136;DHT22;2586;48.710;9.202;2023-03-01T15:32:03;15.20;1.00
5136;DHT22;2586;48.710;9.202;2023-03-01T15:34:32;14.70;1.00
5136;DHT22;2586;48.710;9.202;2023-03-01T15:36:59;14.50;1.00
5136;DHT22;2586;48.710;9.202;2023-03-01T15:39:40;13.50;1.00
5136;DHT22;2586;48.710;9.202;2023-03-01T15:42:13;12.90;1.00
5136;DHT22;2586;48.710;9.202;2023-03-01T15:45:28;13.30;1.00
5136;DHT22;2586;48.710;9.202;2023-03-01T15:47:56;13.70;1.00
5136;DHT22;2586;48.710;9.202;2023-03-01T15:50:33;13.60;1.00
5136;DHT22;2586;48.710;9.202;2023-03-01T15:53:00;14.00;1.00
5136;DHT22;2586;48.710;9.202;2023-03-01T15:55:28;14.00;1.00
5136;DHT22;2586;48.710;9.202;2023-03-01T16:00:39;13.70;1.00
5136;DHT22;2586;48.710;9.202;2023-03-01T16:03:06;13.80;1.00
5136;DHT22;2586;48.710;9.202;2023-03-01T16:05:35;13.70;1.00
5136;DHT22;2586;48.710;9.202;2023-03-01T16:08:02;13.50;1.00
5136;DHT22;2586;48.710;9.202;2023-03-01T16:10:28;13.40;1.00
5136;DHT22;2586;48.710;9.202;2023-03-01T16:12:54;13.40;1.00
5136;DHT22;2586;48.710;9.202;2023-03-01T16:15:20;12.70;1.00
5136;DHT22;2586;48.710;9.202;2023-03-01T16:17:47;12.60;1.00
5136;DHT22;2586;48.710;9.202;2023-03-01T16:20:13;12.50;1.00
5136;DHT22;2586;48.710;9.202;2023-03-01T16:22:43;12.20;1.00
5136;DHT22;2586;48.710;9.202;2023-03-01T16:25:11;11.60;1.00
5136;DHT22;2586;48.710;9.202;2023-03-01T16:27:37;11.20;1.00
5136;DHT22;2586;48.710;9.202;2023-03-01T16:30:05;10.70;1.00
5136;DHT22;2586;48.710;9.202;2023-03-01T16:32:31;10.60;1.00
5136;DHT22;2586;48.710;9.202;2023-03-01T16:34:57;10.20;1.00
5136;DHT22;2586;48.710;9.202;2023-03-01T16:37:22;9.80;1.00
5136;DHT22;2586;48.710;9.202;2023-03-01T16:39:48;9.40;1.00
5136;DHT22;2586;48.710;9.202;2023-03-01T16:42:17;8.80;1.00
5136;DHT22;2586;48.710;9.202;2023-03-01T16:44:43;8.40;1.00
5136;DHT22;2586;48.710;9.202;2023-03-01T16:47:08;7.80;1.00
5136;DHT22;2586;48.710;9.202;2023-03-01T16:49:34;7.50;1.00
5136;DHT22;2586;48.710;9.202;2023-03-01T16:51:59;7.30;1.00
5136;DHT22;2586;48.710;9.202;2023-03-01T16:54:25;7.10;1.00
5136;DHT22;2586;48.710;9.202;2023-03-01T16:56:50;6.80;1.00
5136;DHT22;2586;48.710;9.202;2023-03-01T16:59:16;6.70;1.00
5136;DHT22;2586;48.710;9.202;2023-03-01T17:01:43;6.60;1.00
5136;DHT22;2586;48.710;9.202;2023-03-01T17:04:11;6.40;1.00
5136;DHT22;2586;48.710;9.202;2023-03-01T17:06:37;6.40;1.00
5136;DHT22;2586;48.710;9.202;2023-03-01T17:09:02;6.30;1.00
5136;DHT22;2586;48.710;9.202;2023-03-01T17:11:28;6.20;1.00
5136;DHT22;2586;48.710;9.202;2023-03-01T17:13:54;6.10;1.00
5136;DHT22;2586;48.710;9.202;2023-03-01T17:16:20;6.00;1.00
5136;DHT22;2586;48.710;9.202;2023-03-01T17:18:46;5.90;1.00
5136;DHT22;2586;48.710;9.202;2023-03-01T17:21:12;5.80;1.00
5136;DHT22;2586;48.710;9.202;2023-03-01T17:23:40;5.80;1.00
5136;DHT22;2586;48.710;9.202;2023-03-01T17:26:06;5.70;1.00
5136;DHT22;2586;48.710;9.202;2023-03-01T17:28:33;5.60;1.00
5136;DHT22;2586;48.710;9.202;2023-03-01T17:30:59;5.60;1.00
5136;DHT22;2586;48.710;9.202;2023-03-01T17:33:26;5.80;1.00
5136;DHT22;2586;48.710;9.202;2023-03-01T17:35:51;5.90;1.00
5136;DHT22;2586;48.710;9.202;2023-03-01T17:38:17;5.80;1.00
5136;DHT22;2586;48.710;9.202;2023-03-01T17:40:43;5.70;1.00
5136;DHT22;2586;48.710;9.202;2023-03-01T17:43:14;5.60;1.00
5136;DHT22;2586;48.710;9.202;2023-03-01T17:45:39;5.50;1.00
5136;DHT22;2586;48.710;9.202;2023-03-01T17:48:08;5.40;1.00
5136;DHT22;2586;48.710;9.202;2023-03-01T17:50:36;5.40;1.00
5136;DHT22;2586;48.710;9.202;2023-03-01T17:53:02;5.40;1.00
5136;DHT22;2586;48.710;9.202;2023-03-01T17:55:33;5.30;1.00
5136;DHT22;2586;48.710;9.202;2023-03-01T17:57:59;5.30;1.00
5136;DHT22;2586;48.710;9.202;2023-03-01T18:00:24;5.30;1.00
5136;DHT22;2586;48.710;9.202;2023-03-01T18:02:50;5.30;1.00
5136;DHT22;2586;48.710;9.202;2023-03-01T18:05:15;5.20;1.00
5136;DHT22;2586;48.710;9.202;2023-03-01T18:07:41;5.20;1.00
5136;DHT22;2586;48.710;9.202;2023-03-01T18:10:07;5.10;1.00
5136;DHT22;2586;48.710;9.202;2023-03-01T18:12:33;5.10;1.00
5136;DHT22;2586;48.710;9.202;2023-03-01T18:14:58;4.90;1.00
5136;DHT22;2586;48.710;9.202;2023-03-01T18:17:24;4.80;1.00
5136;DHT22;2586;48.710;9.202;2023-03-01T18:19:51;4.70;1.00
5136;DHT22;2586;48.710;9.202;2023-03-01T18:22:16;4.60;1.00
5136;DHT22;2586;48.710;9.202;2023-03-01T18:24:43;4.60;1.00
5136;DHT22;2586;48.710;9.202;2023-03-01T18:27:10;4.50;1.00
5136;DHT22;2586;48.710;9.202;2023-03-01T18:29:38;4.40;1.00
5136;DHT22;2586;48.710;9.202;2023-03-01T18:32:04;4.40;1.00
5136;DHT22;2586;48.710;9.202;2023-03-01T18:34:30;4.30;1.00
5136;DHT22;2586;48.710;9.202;2023-03-01T18:36:56;4.40;1.00
5136;DHT22;2586;48.710;9.202;2023-03-01T18:39:22;4.30;1.00